sensor_id;sensor_type;location;lat;lon;timestamp;temperature;humidity
79356;SHT31;68825;51.978;5.654;2023-08-12T00:00:57;23.7;72.3
79356;SHT31;68825;51.978;5.654;2023-08-12T00:03:27;23.7;72.6
79356;SHT31;68825;51.978;5.654;2023-08-12T00:05:56;23.7;72.5
79356;SHT31;68825;51.978;5.654;2023-08-12T00:08:27;23.7;72.9
79356;SHT31;68825;51.978;5.654;2023-08-12T00:10:55;23.7;72.8
79356;SHT31;68825;51.978;5.654;2023-08-12T00:13:24;23.7;72.6
79356;SHT31;68825;51.978;5.654;2023-08-12T00:15:54;23.7;72.5
79356;SHT31;68825;51.978;5.654;2023-08-12T00:18:24;23.7;72.4
79356;SHT31;68825;51.978;5.654;2023-08-12T00:20:53;23.7;72.4
79356;SHT31;68825;51.978;5.654;2023-08-12T00:23:22;23.7;72.9
79356;SHT31;68825;51.978;5.654;2023-08-12T00:25:51;23.6;73.0
79356;SHT31;68825;51.978;5.654;2023-08-12T00:28:19;23.6;72.7
79356;SHT31;68825;51.978;5.654;2023-08-12T00:30:49;23.6;72.6
79356;SHT31;68825;51.978;5.654;2023-08-12T00:33:18;23.6;72.5
79356;SHT31;68825;51.978;5.654;2023-08-12T00:35:46;23.6;72.7
79356;SHT31;68825;51.978;5.654;2023-08-12T00:38:15;23.6;72.7
79356;SHT31;68825;51.978;5.654;2023-08-12T00:40:44;23.6;73.1
79356;SHT31;68825;51.978;5.654;2023-08-12T00:43:14;23.6;72.6
79356;SHT31;68825;51.978;5.654;2023-08-12T00:45:43;23.6;72.8
79356;SHT31;68825;51.978;5.654;2023-08-12T00:48:12;23.6;72.6
79356;SHT31;68825;51.978;5.654;2023-08-12T00:50:42;23.6;72.8
79356;SHT31;68825;51.978;5.654;2023-08-12T00:53:12;23.6;72.4
79356;SHT31;68825;51.978;5.654;2023-08-12T00:55:42;23.6;72.5
79356;SHT31;68825;51.978;5.654;2023-08-12T00:58:12;23.6;72.3
79356;SHT31;68825;51.978;5.654;2023-08-12T01:00:43;23.6;72.5
79356;SHT31;68825;51.978;5.654;2023-08-12T01:03:12;23.6;72.5
79356;SHT31;68825;51.978;5.654;2023-08-12T01:05:41;23.6;72.7
79356;SHT31;68825;51.978;5.654;2023-08-12T01:08:10;23.5;72.7
79356;SHT31;68825;51.978;5.654;2023-08-12T01:10:46;23.5;72.8
79356;SHT31;68825;51.978;5.654;2023-08-12T01:13:29;23.5;73.0
79356;SHT31;68825;51.978;5.654;2023-08-12T01:16:02;23.5;72.9
79356;SHT31;68825;51.978;5.654;2023-08-12T01:18:33;23.5;73.0
79356;SHT31;68825;51.978;5.654;2023-08-12T01:21:02;23.5;72.7
79356;SHT31;68825;51.978;5.654;2023-08-12T01:23:33;23.5;72.8
79356;SHT31;68825;51.978;5.654;2023-08-12T01:26:01;23.5;72.6
79356;SHT31;68825;51.978;5.654;2023-08-12T01:28:30;23.5;72.4
79356;SHT31;68825;51.978;5.654;2023-08-12T01:31:07;23.5;72.5
79356;SHT31;68825;51.978;5.654;2023-08-12T01:33:42;23.4;73.0
79356;SHT31;68825;51.978;5.654;2023-08-12T01:36:17;23.4;72.8
79356;SHT31;68825;51.978;5.654;2023-08-12T01:38:47;23.4;73.2
79356;SHT31;68825;51.978;5.654;2023-08-12T01:41:18;23.4;73.1
79356;SHT31;68825;51.978;5.654;2023-08-12T01:43:48;23.4;73.1
79356;SHT31;68825;51.978;5.654;2023-08-12T01:46:17;23.4;73.3
79356;SHT31;68825;51.978;5.654;2023-08-12T01:48:48;23.4;73.4
79356;SHT31;68825;51.978;5.654;2023-08-12T01:51:17;23.4;73.3
79356;SHT31;68825;51.978;5.654;2023-08-12T01:53:45;23.3;73.2
79356;SHT31;68825;51.978;5.654;2023-08-12T01:56:14;23.3;73.3
79356;SHT31;68825;51.978;5.654;2023-08-12T01:58:43;23.3;73.6
79356;SHT31;68825;51.978;5.654;2023-08-12T02:01:11;23.3;73.6
79356;SHT31;68825;51.978;5.654;2023-08-12T02:03:40;23.3;74.0
79356;SHT31;68825;51.978;5.654;2023-08-12T02:06:08;23.3;74.1
79356;SHT31;68825;51.978;5.654;2023-08-12T02:08:37;23.3;74.2
79356;SHT31;68825;51.978;5.654;2023-08-12T02:11:05;23.3;74.0
79356;SHT31;68825;51.978;5.654;2023-08-12T02:13:36;23.3;74.2
79356;SHT31;68825;51.978;5.654;2023-08-12T02:16:06;23.3;74.6
79356;SHT31;68825;51.978;5.654;2023-08-12T02:18:35;23.3;74.4
79356;SHT31;68825;51.978;5.654;2023-08-12T02:21:03;23.3;74.5
79356;SHT31;68825;51.978;5.654;2023-08-12T02:23:32;23.3;74.7
79356;SHT31;68825;51.978;5.654;2023-08-12T02:26:03;23.3;74.7
79356;SHT31;68825;51.978;5.654;2023-08-12T02:28:31;23.2;74.8
79356;SHT31;68825;51.978;5.654;2023-08-12T02:31:01;23.2;74.9
79356;SHT31;68825;51.978;5.654;2023-08-12T02:33:29;23.2;74.9
79356;SHT31;68825;51.978;5.654;2023-08-12T02:35:58;23.2;74.9
79356;SHT31;68825;51.978;5.654;2023-08-12T02:38:26;23.2;74.9
79356;SHT31;68825;51.978;5.654;2023-08-12T02:40:55;23.2;75.1
79356;SHT31;68825;51.978;5.654;2023-08-12T02:43:24;23.2;75.2
79356;SHT31;68825;51.978;5.654;2023-08-12T02:45:52;23.2;75.2
79356;SHT31;68825;51.978;5.654;2023-08-12T02:48:22;23.2;75.3
79356;SHT31;68825;51.978;5.654;2023-08-12T02:50:51;23.2;75.3
79356;SHT31;68825;51.978;5.654;2023-08-12T02:53:19;23.2;75.4
79356;SHT31;68825;51.978;5.654;2023-08-12T02:55:48;23.2;75.4
79356;SHT31;68825;51.978;5.654;2023-08-12T02:58:16;23.2;75.4
79356;SHT31;68825;51.978;5.654;2023-08-12T03:00:46;23.2;75.5
79356;SHT31;68825;51.978;5.654;2023-08-12T03:03:15;23.2;75.5
79356;SHT31;68825;51.978;5.654;2023-08-12T03:05:45;23.2;75.5
79356;SHT31;68825;51.978;5.654;2023-08-12T03:08:14;23.2;75.6
79356;SHT31;68825;51.978;5.654;2023-08-12T03:10:44;23.2;75.7
79356;SHT31;68825;51.978;5.654;2023-08-12T03:13:13;23.2;75.8
79356;SHT31;68825;51.978;5.654;2023-08-12T03:15:42;23.2;75.8
79356;SHT31;68825;51.978;5.654;2023-08-12T03:18:10;23.2;75.7
79356;SHT31;68825;51.978;5.654;2023-08-12T03:20:41;23.2;75.6
79356;SHT31;68825;51.978;5.654;2023-08-12T03:23:09;23.2;75.7
79356;SHT31;68825;51.978;5.654;2023-08-12T03:25:38;23.2;75.8
79356;SHT31;68825;51.978;5.654;2023-08-12T03:28:06;23.2;75.8
79356;SHT31;68825;51.978;5.654;2023-08-12T03:30:35;23.2;75.8
79356;SHT31;68825;51.978;5.654;2023-08-12T03:33:07;23.2;75.8
79356;SHT31;68825;51.978;5.654;2023-08-12T03:35:36;23.1;75.9
79356;SHT31;68825;51.978;5.654;2023-08-12T03:38:07;23.1;75.9
79356;SHT31;68825;51.978;5.654;2023-08-12T03:40:39;23.1;75.7
79356;SHT31;68825;51.978;5.654;2023-08-12T03:43:08;23.1;75.9
79356;SHT31;68825;51.978;5.654;2023-08-12T03:45:42;23.1;75.8
79356;SHT31;68825;51.978;5.654;2023-08-12T03:48:13;23.1;75.9
79356;SHT31;68825;51.978;5.654;2023-08-12T03:50:42;23.1;76.0
79356;SHT31;68825;51.978;5.654;2023-08-12T03:53:13;23.1;76.0
79356;SHT31;68825;51.978;5.654;2023-08-12T03:55:43;23.1;76.0
79356;SHT31;68825;51.978;5.654;2023-08-12T03:58:11;23.1;76.1
79356;SHT31;68825;51.978;5.654;2023-08-12T04:00:44;23.1;76.1
79356;SHT31;68825;51.978;5.654;2023-08-12T04:03:13;23.1;76.1
79356;SHT31;68825;51.978;5.654;2023-08-12T04:05:49;23.1;76.1
79356;SHT31;68825;51.978;5.654;2023-08-12T04:08:23;23.1;76.0
79356;SHT31;68825;51.978;5.654;2023-08-12T04:10:52;23.1;76.1
79356;SHT31;68825;51.978;5.654;2023-08-12T04:13:21;23.1;76.1
79356;SHT31;68825;51.978;5.654;2023-08-12T04:15:50;23.1;75.9
79356;SHT31;68825;51.978;5.654;2023-08-12T04:18:19;23.1;76.0
79356;SHT31;68825;51.978;5.654;2023-08-12T04:20:49;23.1;76.1
79356;SHT31;68825;51.978;5.654;2023-08-12T04:23:18;23.1;76.2
79356;SHT31;68825;51.978;5.654;2023-08-12T04:25:48;23.1;76.1
79356;SHT31;68825;51.978;5.654;2023-08-12T04:28:17;23.1;76.1
79356;SHT31;68825;51.978;5.654;2023-08-12T04:30:47;23.1;76.1
79356;SHT31;68825;51.978;5.654;2023-08-12T04:33:17;23.1;76.1
79356;SHT31;68825;51.978;5.654;2023-08-12T04:35:46;23.1;76.2
79356;SHT31;68825;51.978;5.654;2023-08-12T04:38:16;23.1;76.2
79356;SHT31;68825;51.978;5.654;2023-08-12T04:40:45;23.1;76.2
79356;SHT31;68825;51.978;5.654;2023-08-12T04:43:14;23.1;76.2
79356;SHT31;68825;51.978;5.654;2023-08-12T04:45:44;23.1;76.6
79356;SHT31;68825;51.978;5.654;2023-08-12T04:48:13;23.1;76.4
79356;SHT31;68825;51.978;5.654;2023-08-12T04:50:43;23.1;76.3
79356;SHT31;68825;51.978;5.654;2023-08-12T04:53:11;23.1;76.6
79356;SHT31;68825;51.978;5.654;2023-08-12T04:55:42;23.1;76.5
79356;SHT31;68825;51.978;5.654;2023-08-12T04:58:11;23.1;76.7
79356;SHT31;68825;51.978;5.654;2023-08-12T05:00:39;23.1;76.6
79356;SHT31;68825;51.978;5.654;2023-08-12T05:03:10;23.1;76.6
79356;SHT31;68825;51.978;5.654;2023-08-12T05:05:39;23.1;76.4
79356;SHT31;68825;51.978;5.654;2023-08-12T05:08:08;23.1;76.3
79356;SHT31;68825;51.978;5.654;2023-08-12T05:10:38;23.1;76.3
79356;SHT31;68825;51.978;5.654;2023-08-12T05:13:07;23.1;76.3
79356;SHT31;68825;51.978;5.654;2023-08-12T05:15:36;23.1;76.2
79356;SHT31;68825;51.978;5.654;2023-08-12T05:18:06;23.1;76.2
79356;SHT31;68825;51.978;5.654;2023-08-12T05:20:34;23.1;76.3
79356;SHT31;68825;51.978;5.654;2023-08-12T05:23:03;23.1;76.2
79356;SHT31;68825;51.978;5.654;2023-08-12T05:25:32;23.1;76.1
79356;SHT31;68825;51.978;5.654;2023-08-12T05:28:00;23.1;76.2
79356;SHT31;68825;51.978;5.654;2023-08-12T05:30:29;23.0;76.4
79356;SHT31;68825;51.978;5.654;2023-08-12T05:32:58;23.0;76.6
79356;SHT31;68825;51.978;5.654;2023-08-12T05:35:32;23.0;76.4
79356;SHT31;68825;51.978;5.654;2023-08-12T05:38:01;23.0;76.4
79356;SHT31;68825;51.978;5.654;2023-08-12T05:40:30;23.0;76.7
79356;SHT31;68825;51.978;5.654;2023-08-12T05:42:59;23.0;76.8
79356;SHT31;68825;51.978;5.654;2023-08-12T05:45:28;23.0;77.0
79356;SHT31;68825;51.978;5.654;2023-08-12T05:47:57;23.0;77.0
79356;SHT31;68825;51.978;5.654;2023-08-12T05:50:25;22.9;76.6
79356;SHT31;68825;51.978;5.654;2023-08-12T05:52:54;22.9;76.8
79356;SHT31;68825;51.978;5.654;2023-08-12T05:55:23;22.9;76.9
79356;SHT31;68825;51.978;5.654;2023-08-12T05:57:51;22.9;77.0
79356;SHT31;68825;51.978;5.654;2023-08-12T06:00:20;22.9;77.1
79356;SHT31;68825;51.978;5.654;2023-08-12T06:02:49;22.9;76.8
79356;SHT31;68825;51.978;5.654;2023-08-12T06:05:17;22.9;76.9
79356;SHT31;68825;51.978;5.654;2023-08-12T06:07:46;22.9;77.0
79356;SHT31;68825;51.978;5.654;2023-08-12T06:10:14;22.9;76.8
79356;SHT31;68825;51.978;5.654;2023-08-12T06:12:43;22.9;76.7
79356;SHT31;68825;51.978;5.654;2023-08-12T06:15:12;22.8;76.8
79356;SHT31;68825;51.978;5.654;2023-08-12T06:17:40;22.8;76.9
79356;SHT31;68825;51.978;5.654;2023-08-12T06:20:09;22.8;77.0
79356;SHT31;68825;51.978;5.654;2023-08-12T06:22:38;22.8;76.9
79356;SHT31;68825;51.978;5.654;2023-08-12T06:25:07;22.8;76.9
79356;SHT31;68825;51.978;5.654;2023-08-12T06:27:37;22.8;76.8
79356;SHT31;68825;51.978;5.654;2023-08-12T06:30:06;22.8;76.2
79356;SHT31;68825;51.978;5.654;2023-08-12T06:32:36;22.8;76.3
79356;SHT31;68825;51.978;5.654;2023-08-12T06:35:05;22.7;76.5
79356;SHT31;68825;51.978;5.654;2023-08-12T06:37:34;22.7;76.5
79356;SHT31;68825;51.978;5.654;2023-08-12T06:40:03;22.7;76.7
79356;SHT31;68825;51.978;5.654;2023-08-12T06:42:32;22.7;76.8
79356;SHT31;68825;51.978;5.654;2023-08-12T06:45:00;22.6;76.9
79356;SHT31;68825;51.978;5.654;2023-08-12T06:47:30;22.6;76.8
79356;SHT31;68825;51.978;5.654;2023-08-12T06:50:01;22.6;77.3
79356;SHT31;68825;51.978;5.654;2023-08-12T06:52:30;22.6;77.2
79356;SHT31;68825;51.978;5.654;2023-08-12T06:55:00;22.6;77.0
79356;SHT31;68825;51.978;5.654;2023-08-12T06:57:29;22.6;77.2
79356;SHT31;68825;51.978;5.654;2023-08-12T06:59:57;22.6;77.6
79356;SHT31;68825;51.978;5.654;2023-08-12T07:02:26;22.6;77.6
79356;SHT31;68825;51.978;5.654;2023-08-12T07:04:55;22.5;77.7
79356;SHT31;68825;51.978;5.654;2023-08-12T07:07:23;22.5;78.2
79356;SHT31;68825;51.978;5.654;2023-08-12T07:09:52;22.5;78.3
79356;SHT31;68825;51.978;5.654;2023-08-12T07:12:20;22.5;78.9
79356;SHT31;68825;51.978;5.654;2023-08-12T07:14:49;22.5;79.1
79356;SHT31;68825;51.978;5.654;2023-08-12T07:17:18;22.5;79.0
79356;SHT31;68825;51.978;5.654;2023-08-12T07:19:47;22.5;78.9
79356;SHT31;68825;51.978;5.654;2023-08-12T07:22:16;22.5;79.1
79356;SHT31;68825;51.978;5.654;2023-08-12T07:24:46;22.5;79.4
79356;SHT31;68825;51.978;5.654;2023-08-12T07:27:15;22.5;78.3
79356;SHT31;68825;51.978;5.654;2023-08-12T07:29:44;22.5;78.7
79356;SHT31;68825;51.978;5.654;2023-08-12T07:32:13;22.5;78.6
79356;SHT31;68825;51.978;5.654;2023-08-12T07:34:44;22.5;78.7
79356;SHT31;68825;51.978;5.654;2023-08-12T07:37:12;22.4;78.8
79356;SHT31;68825;51.978;5.654;2023-08-12T07:39:41;22.4;78.8
79356;SHT31;68825;51.978;5.654;2023-08-12T07:42:12;22.4;79.2
79356;SHT31;68825;51.978;5.654;2023-08-12T07:44:40;22.4;79.3
79356;SHT31;68825;51.978;5.654;2023-08-12T07:47:09;22.4;79.3
79356;SHT31;68825;51.978;5.654;2023-08-12T07:49:37;22.4;79.3
79356;SHT31;68825;51.978;5.654;2023-08-12T07:52:08;22.4;79.6
79356;SHT31;68825;51.978;5.654;2023-08-12T07:54:37;22.4;79.5
79356;SHT31;68825;51.978;5.654;2023-08-12T07:57:06;22.4;79.5
79356;SHT31;68825;51.978;5.654;2023-08-12T07:59:35;22.4;79.9
79356;SHT31;68825;51.978;5.654;2023-08-12T08:02:04;22.4;79.6
79356;SHT31;68825;51.978;5.654;2023-08-12T08:04:33;22.3;79.6
79356;SHT31;68825;51.978;5.654;2023-08-12T08:07:02;22.3;80.0
79356;SHT31;68825;51.978;5.654;2023-08-12T08:09:30;22.3;79.4
79356;SHT31;68825;51.978;5.654;2023-08-12T08:12:00;22.3;80.2
79356;SHT31;68825;51.978;5.654;2023-08-12T08:14:29;22.3;80.0
79356;SHT31;68825;51.978;5.654;2023-08-12T08:16:57;22.3;79.8
79356;SHT31;68825;51.978;5.654;2023-08-12T08:19:27;22.3;79.7
79356;SHT31;68825;51.978;5.654;2023-08-12T08:21:59;22.3;79.9
79356;SHT31;68825;51.978;5.654;2023-08-12T08:24:27;22.3;80.1
79356;SHT31;68825;51.978;5.654;2023-08-12T08:26:56;22.3;80.2
79356;SHT31;68825;51.978;5.654;2023-08-12T08:29:27;22.3;79.8
79356;SHT31;68825;51.978;5.654;2023-08-12T08:31:57;22.3;79.9
79356;SHT31;68825;51.978;5.654;2023-08-12T08:34:26;22.4;79.9
79356;SHT31;68825;51.978;5.654;2023-08-12T08:36:56;22.4;80.4
79356;SHT31;68825;51.978;5.654;2023-08-12T08:39:25;22.4;80.1
79356;SHT31;68825;51.978;5.654;2023-08-12T08:41:54;22.4;79.8
79356;SHT31;68825;51.978;5.654;2023-08-12T08:44:23;22.4;80.1
79356;SHT31;68825;51.978;5.654;2023-08-12T08:46:58;22.4;80.3
79356;SHT31;68825;51.978;5.654;2023-08-12T08:49:28;22.5;80.2
79356;SHT31;68825;51.978;5.654;2023-08-12T08:51:59;22.5;80.0
79356;SHT31;68825;51.978;5.654;2023-08-12T08:54:28;22.5;79.8
79356;SHT31;68825;51.978;5.654;2023-08-12T08:56:57;22.5;79.9
79356;SHT31;68825;51.978;5.654;2023-08-12T08:59:26;22.5;80.2
79356;SHT31;68825;51.978;5.654;2023-08-12T09:01:55;22.5;80.1
79356;SHT31;68825;51.978;5.654;2023-08-12T09:04:27;22.5;79.7
79356;SHT31;68825;51.978;5.654;2023-08-12T09:06:58;22.5;79.9
79356;SHT31;68825;51.978;5.654;2023-08-12T09:09:28;22.5;80.4
79356;SHT31;68825;51.978;5.654;2023-08-12T09:11:57;22.5;79.8
79356;SHT31;68825;51.978;5.654;2023-08-12T09:14:28;22.5;79.4
79356;SHT31;68825;51.978;5.654;2023-08-12T09:16:57;22.5;79.8
79356;SHT31;68825;51.978;5.654;2023-08-12T09:19:26;22.5;80.2
79356;SHT31;68825;51.978;5.654;2023-08-12T09:21:55;22.5;80.2
79356;SHT31;68825;51.978;5.654;2023-08-12T09:24:26;22.5;80.2
79356;SHT31;68825;51.978;5.654;2023-08-12T09:26:58;22.5;80.7
79356;SHT31;68825;51.978;5.654;2023-08-12T09:29:29;22.5;80.9
79356;SHT31;68825;51.978;5.654;2023-08-12T09:32:09;22.5;81.0
79356;SHT31;68825;51.978;5.654;2023-08-12T09:34:49;22.6;81.0
79356;SHT31;68825;51.978;5.654;2023-08-12T09:37:18;22.6;80.9
79356;SHT31;68825;51.978;5.654;2023-08-12T09:39:48;22.6;80.6
79356;SHT31;68825;51.978;5.654;2023-08-12T09:42:18;22.7;81.3
79356;SHT31;68825;51.978;5.654;2023-08-12T09:44:48;22.7;80.1
79356;SHT31;68825;51.978;5.654;2023-08-12T09:47:16;22.8;80.1
79356;SHT31;68825;51.978;5.654;2023-08-12T09:49:45;22.8;80.3
79356;SHT31;68825;51.978;5.654;2023-08-12T09:52:15;22.8;80.5
79356;SHT31;68825;51.978;5.654;2023-08-12T09:54:45;22.9;80.5
79356;SHT31;68825;51.978;5.654;2023-08-12T09:57:17;22.9;80.4
79356;SHT31;68825;51.978;5.654;2023-08-12T09:59:50;23.0;79.5
79356;SHT31;68825;51.978;5.654;2023-08-12T10:02:21;23.0;78.5
79356;SHT31;68825;51.978;5.654;2023-08-12T10:04:53;23.0;77.5
79356;SHT31;68825;51.978;5.654;2023-08-12T10:07:23;23.1;75.6
79356;SHT31;68825;51.978;5.654;2023-08-12T10:09:53;23.1;74.9
79356;SHT31;68825;51.978;5.654;2023-08-12T10:12:24;23.1;73.9
79356;SHT31;68825;51.978;5.654;2023-08-12T10:14:53;23.1;73.9
79356;SHT31;68825;51.978;5.654;2023-08-12T10:17:22;23.0;73.6
79356;SHT31;68825;51.978;5.654;2023-08-12T10:19:55;23.0;73.6
79356;SHT31;68825;51.978;5.654;2023-08-12T10:22:24;22.9;72.3
79356;SHT31;68825;51.978;5.654;2023-08-12T10:24:55;22.9;73.3
79356;SHT31;68825;51.978;5.654;2023-08-12T10:27:25;22.8;74.6
79356;SHT31;68825;51.978;5.654;2023-08-12T10:29:56;22.8;74.6
79356;SHT31;68825;51.978;5.654;2023-08-12T10:32:25;22.8;73.9
79356;SHT31;68825;51.978;5.654;2023-08-12T10:34:57;22.8;73.7
79356;SHT31;68825;51.978;5.654;2023-08-12T10:37:27;22.8;74.4
79356;SHT31;68825;51.978;5.654;2023-08-12T10:39:55;22.7;73.3
79356;SHT31;68825;51.978;5.654;2023-08-12T10:42:43;22.7;74.8
79356;SHT31;68825;51.978;5.654;2023-08-12T10:45:16;22.7;74.6
79356;SHT31;68825;51.978;5.654;2023-08-12T10:50:27;22.7;71.8
79356;SHT31;68825;51.978;5.654;2023-08-12T10:52:55;22.7;73.2
79356;SHT31;68825;51.978;5.654;2023-08-12T10:55:25;22.8;74.0
79356;SHT31;68825;51.978;5.654;2023-08-12T10:57:57;22.8;74.4
79356;SHT31;68825;51.978;5.654;2023-08-12T11:00:27;22.9;73.2
79356;SHT31;68825;51.978;5.654;2023-08-12T11:02:56;22.9;74.1
79356;SHT31;68825;51.978;5.654;2023-08-12T11:05:37;23.0;71.1
79356;SHT31;68825;51.978;5.654;2023-08-12T11:08:06;23.1;71.7
79356;SHT31;68825;51.978;5.654;2023-08-12T11:10:35;23.1;70.9
79356;SHT31;68825;51.978;5.654;2023-08-12T11:13:04;23.2;70.9
79356;SHT31;68825;51.978;5.654;2023-08-12T11:15:35;23.2;71.0
79356;SHT31;68825;51.978;5.654;2023-08-12T11:18:06;23.3;69.0
79356;SHT31;68825;51.978;5.654;2023-08-12T11:20:37;23.3;68.8
79356;SHT31;68825;51.978;5.654;2023-08-12T11:23:08;23.4;69.0
79356;SHT31;68825;51.978;5.654;2023-08-12T11:25:39;23.5;65.4
79356;SHT31;68825;51.978;5.654;2023-08-12T11:28:08;23.5;65.6
79356;SHT31;68825;51.978;5.654;2023-08-12T11:30:40;23.5;65.6
79356;SHT31;68825;51.978;5.654;2023-08-12T11:33:10;23.6;64.6
79356;SHT31;68825;51.978;5.654;2023-08-12T11:35:40;23.6;63.8
79356;SHT31;68825;51.978;5.654;2023-08-12T11:38:09;23.7;65.4
79356;SHT31;68825;51.978;5.654;2023-08-12T11:40:37;23.7;64.9
79356;SHT31;68825;51.978;5.654;2023-08-12T11:43:06;23.8;68.2
79356;SHT31;68825;51.978;5.654;2023-08-12T11:45:35;23.8;64.8
79356;SHT31;68825;51.978;5.654;2023-08-12T11:48:07;23.9;65.6
79356;SHT31;68825;51.978;5.654;2023-08-12T11:50:36;23.9;62.8
79356;SHT31;68825;51.978;5.654;2023-08-12T11:53:06;23.9;64.3
79356;SHT31;68825;51.978;5.654;2023-08-12T11:55:35;24.0;64.3
79356;SHT31;68825;51.978;5.654;2023-08-12T11:58:04;24.0;64.1
79356;SHT31;68825;51.978;5.654;2023-08-12T12:00:34;24.1;64.6
79356;SHT31;68825;51.978;5.654;2023-08-12T12:03:03;24.2;62.7
79356;SHT31;68825;51.978;5.654;2023-08-12T12:05:32;24.3;62.1
79356;SHT31;68825;51.978;5.654;2023-08-12T12:08:01;24.3;60.2
79356;SHT31;68825;51.978;5.654;2023-08-12T12:10:33;24.4;60.6
79356;SHT31;68825;51.978;5.654;2023-08-12T12:13:03;24.5;61.6
79356;SHT31;68825;51.978;5.654;2023-08-12T12:15:41;24.5;60.0
79356;SHT31;68825;51.978;5.654;2023-08-12T12:18:12;24.6;60.1
79356;SHT31;68825;51.978;5.654;2023-08-12T12:20:55;24.6;62.5
79356;SHT31;68825;51.978;5.654;2023-08-12T12:23:26;24.7;61.5
79356;SHT31;68825;51.978;5.654;2023-08-12T12:25:59;24.8;61.3
79356;SHT31;68825;51.978;5.654;2023-08-12T12:28:28;24.8;61.5
79356;SHT31;68825;51.978;5.654;2023-08-12T12:30:57;24.9;60.1
79356;SHT31;68825;51.978;5.654;2023-08-12T12:33:26;25.0;57.4
79356;SHT31;68825;51.978;5.654;2023-08-12T12:35:55;25.1;58.8
79356;SHT31;68825;51.978;5.654;2023-08-12T12:38:24;25.1;58.3
79356;SHT31;68825;51.978;5.654;2023-08-12T12:40:53;25.1;56.2
79356;SHT31;68825;51.978;5.654;2023-08-12T12:43:21;25.1;56.4
79356;SHT31;68825;51.978;5.654;2023-08-12T12:45:50;25.1;56.8
79356;SHT31;68825;51.978;5.654;2023-08-12T12:48:19;25.1;57.3
79356;SHT31;68825;51.978;5.654;2023-08-12T12:50:47;25.1;59.1
79356;SHT31;68825;51.978;5.654;2023-08-12T12:53:16;25.2;56.0
79356;SHT31;68825;51.978;5.654;2023-08-12T12:55:45;25.2;58.8
79356;SHT31;68825;51.978;5.654;2023-08-12T12:58:13;25.2;57.1
79356;SHT31;68825;51.978;5.654;2023-08-12T13:00:42;25.2;57.7
79356;SHT31;68825;51.978;5.654;2023-08-12T13:03:11;25.2;57.4
79356;SHT31;68825;51.978;5.654;2023-08-12T13:05:40;25.2;58.2
79356;SHT31;68825;51.978;5.654;2023-08-12T13:08:08;25.3;56.0
79356;SHT31;68825;51.978;5.654;2023-08-12T13:10:37;25.4;57.7
79356;SHT31;68825;51.978;5.654;2023-08-12T13:13:06;25.5;55.7
79356;SHT31;68825;51.978;5.654;2023-08-12T13:15:35;25.6;58.5
79356;SHT31;68825;51.978;5.654;2023-08-12T13:18:04;25.7;55.5
79356;SHT31;68825;51.978;5.654;2023-08-12T13:20:34;25.8;55.7
79356;SHT31;68825;51.978;5.654;2023-08-12T13:23:06;25.9;57.1
79356;SHT31;68825;51.978;5.654;2023-08-12T13:25:34;26.0;55.2
79356;SHT31;68825;51.978;5.654;2023-08-12T13:28:04;26.1;56.0
79356;SHT31;68825;51.978;5.654;2023-08-12T13:30:34;26.1;54.4
79356;SHT31;68825;51.978;5.654;2023-08-12T13:33:05;26.2;54.1
79356;SHT31;68825;51.978;5.654;2023-08-12T13:35:35;26.2;51.1
79356;SHT31;68825;51.978;5.654;2023-08-12T13:38:06;26.3;51.9
79356;SHT31;68825;51.978;5.654;2023-08-12T13:40:34;26.3;50.7
79356;SHT31;68825;51.978;5.654;2023-08-12T13:43:03;26.4;53.1
79356;SHT31;68825;51.978;5.654;2023-08-12T13:45:32;26.4;50.5
79356;SHT31;68825;51.978;5.654;2023-08-12T13:48:01;26.5;50.0
79356;SHT31;68825;51.978;5.654;2023-08-12T13:50:29;26.6;49.1
79356;SHT31;68825;51.978;5.654;2023-08-12T13:52:59;26.7;51.6
79356;SHT31;68825;51.978;5.654;2023-08-12T13:55:27;26.7;49.4
79356;SHT31;68825;51.978;5.654;2023-08-12T13:57:56;26.8;50.6
79356;SHT31;68825;51.978;5.654;2023-08-12T14:00:25;26.8;50.2
79356;SHT31;68825;51.978;5.654;2023-08-12T14:02:54;26.9;51.3
79356;SHT31;68825;51.978;5.654;2023-08-12T14:05:24;26.9;49.5
79356;SHT31;68825;51.978;5.654;2023-08-12T14:07:53;26.9;48.2
79356;SHT31;68825;51.978;5.654;2023-08-12T14:10:22;27.0;48.4
79356;SHT31;68825;51.978;5.654;2023-08-12T14:12:50;27.0;50.2
79356;SHT31;68825;51.978;5.654;2023-08-12T14:15:19;27.0;46.2
79356;SHT31;68825;51.978;5.654;2023-08-12T14:17:48;27.0;48.3
79356;SHT31;68825;51.978;5.654;2023-08-12T14:20:16;27.0;48.5
79356;SHT31;68825;51.978;5.654;2023-08-12T14:22:46;27.0;45.8
79356;SHT31;68825;51.978;5.654;2023-08-12T14:25:14;27.0;46.1
79356;SHT31;68825;51.978;5.654;2023-08-12T14:27:44;27.0;46.4
79356;SHT31;68825;51.978;5.654;2023-08-12T14:30:17;27.0;45.6
79356;SHT31;68825;51.978;5.654;2023-08-12T14:32:46;27.0;47.6
79356;SHT31;68825;51.978;5.654;2023-08-12T14:35:15;27.0;45.5
79356;SHT31;68825;51.978;5.654;2023-08-12T14:37:45;27.0;47.8
79356;SHT31;68825;51.978;5.654;2023-08-12T14:40:13;27.0;45.3
79356;SHT31;68825;51.978;5.654;2023-08-12T14:42:42;27.0;45.3
79356;SHT31;68825;51.978;5.654;2023-08-12T14:45:11;27.0;47.9
79356;SHT31;68825;51.978;5.654;2023-08-12T14:47:39;26.9;47.4
79356;SHT31;68825;51.978;5.654;2023-08-12T14:50:10;26.9;47.5
79356;SHT31;68825;51.978;5.654;2023-08-12T14:52:40;26.9;46.6
79356;SHT31;68825;51.978;5.654;2023-08-12T14:55:09;26.8;47.2
79356;SHT31;68825;51.978;5.654;2023-08-12T14:57:38;26.8;45.9
79356;SHT31;68825;51.978;5.654;2023-08-12T15:00:08;26.8;48.9
79356;SHT31;68825;51.978;5.654;2023-08-12T15:02:38;26.8;47.6
79356;SHT31;68825;51.978;5.654;2023-08-12T15:05:07;26.8;49.2
79356;SHT31;68825;51.978;5.654;2023-08-12T15:07:35;26.7;46.7
79356;SHT31;68825;51.978;5.654;2023-08-12T15:10:04;26.7;46.0
79356;SHT31;68825;51.978;5.654;2023-08-12T15:12:33;26.7;47.6
79356;SHT31;68825;51.978;5.654;2023-08-12T15:15:02;26.7;46.9
79356;SHT31;68825;51.978;5.654;2023-08-12T15:17:33;26.6;46.8
79356;SHT31;68825;51.978;5.654;2023-08-12T15:20:01;26.6;48.0
79356;SHT31;68825;51.978;5.654;2023-08-12T15:22:32;26.6;47.4
79356;SHT31;68825;51.978;5.654;2023-08-12T15:25:03;26.5;48.0
79356;SHT31;68825;51.978;5.654;2023-08-12T15:27:32;26.5;48.3
79356;SHT31;68825;51.978;5.654;2023-08-12T15:30:01;26.5;49.8
79356;SHT31;68825;51.978;5.654;2023-08-12T15:32:30;26.4;48.0
79356;SHT31;68825;51.978;5.654;2023-08-12T15:34:59;26.4;49.5
79356;SHT31;68825;51.978;5.654;2023-08-12T15:37:28;26.4;48.6
79356;SHT31;68825;51.978;5.654;2023-08-12T15:39:57;26.4;48.6
79356;SHT31;68825;51.978;5.654;2023-08-12T15:42:25;26.3;49.1
79356;SHT31;68825;51.978;5.654;2023-08-12T15:44:55;26.3;48.4
79356;SHT31;68825;51.978;5.654;2023-08-12T15:47:24;26.3;49.0
79356;SHT31;68825;51.978;5.654;2023-08-12T15:49:52;26.2;48.6
79356;SHT31;68825;51.978;5.654;2023-08-12T15:52:21;26.1;50.3
79356;SHT31;68825;51.978;5.654;2023-08-12T15:54:49;26.1;50.9
79356;SHT31;68825;51.978;5.654;2023-08-12T15:57:18;26.0;51.1
79356;SHT31;68825;51.978;5.654;2023-08-12T15:59:46;25.9;51.3
79356;SHT31;68825;51.978;5.654;2023-08-12T16:02:15;25.8;51.5
79356;SHT31;68825;51.978;5.654;2023-08-12T16:04:44;25.7;53.1
79356;SHT31;68825;51.978;5.654;2023-08-12T16:07:14;25.7;51.4
79356;SHT31;68825;51.978;5.654;2023-08-12T16:09:43;25.6;51.5
79356;SHT31;68825;51.978;5.654;2023-08-12T16:12:13;25.6;52.0
79356;SHT31;68825;51.978;5.654;2023-08-12T16:14:45;25.5;52.1
79356;SHT31;68825;51.978;5.654;2023-08-12T16:17:14;25.5;52.1
79356;SHT31;68825;51.978;5.654;2023-08-12T16:19:43;25.4;52.3